createdAt,value
2022-11-17T00:02:27.366Z,0.50
2022-11-17T00:06:28.773Z,0.73
2022-11-17T00:10:30.185Z,1.17
2022-11-17T00:14:36.729Z,1.10
2022-11-17T00:18:56.802Z,1.10
2022-11-17T00:22:58.193Z,0.77
2022-11-17T00:27:02.263Z,0.60
2022-11-17T00:31:22.291Z,1.00
2022-11-17T00:35:23.935Z,0.60
2022-11-17T00:39:25.345Z,0.93
2022-11-17T00:43:26.795Z,1.05
2022-11-17T00:47:28.204Z,1.20
2022-11-17T00:51:29.882Z,1.27
2022-11-17T00:55:31.353Z,1.20
2022-11-17T00:59:32.813Z,1.05
2022-11-17T01:03:35.789Z,1.15
2022-11-17T01:07:37.546Z,1.23
2022-11-17T01:11:39.379Z,1.33
2022-11-17T01:15:40.800Z,1.20
2022-11-17T01:19:42.372Z,0.95
2022-11-17T01:23:45.711Z,1.17
2022-11-17T01:27:48.161Z,1.50
2022-11-17T01:31:52.003Z,1.25
2022-11-17T01:35:54.030Z,1.13
2022-11-17T01:39:55.442Z,0.85
2022-11-17T01:44:18.053Z,1.38
2022-11-17T01:48:19.483Z,0.75
2022-11-17T01:52:21.849Z,1.10
2022-11-17T01:56:29.869Z,1.42
2022-11-17T02:00:31.480Z,1.42
2022-11-17T02:04:44.025Z,0.38
2022-11-17T02:08:49.649Z,0.80
2022-11-17T02:12:53.285Z,0.80
2022-11-17T02:16:54.797Z,1.08
2022-11-17T02:21:15.892Z,1.10
2022-11-17T02:25:54.949Z,1.10
2022-11-17T02:30:03.511Z,1.27
2022-11-17T02:34:16.986Z,1.02
2022-11-17T02:38:43.184Z,1.33
2022-11-17T02:43:15.634Z,1.20
2022-11-17T02:47:23.715Z,1.27
2022-11-17T02:51:25.519Z,1.83
2022-11-17T02:55:27.701Z,1.30
2022-11-17T02:59:42.676Z,1.13
2022-11-17T03:03:56.480Z,1.13
2022-11-17T03:08:09.866Z,1.20
2022-11-17T03:12:34.049Z,1.88
2022-11-17T03:16:49.059Z,1.20
2022-11-17T03:21:26.632Z,1.02
2022-11-17T03:25:32.088Z,1.42
2022-11-17T03:29:37.743Z,0.90
2022-11-17T03:33:43.122Z,1.50
2022-11-17T03:37:49.906Z,1.30
2022-11-17T03:41:58.382Z,0.80
2022-11-17T03:46:07.658Z,1.67
2022-11-17T03:50:17.236Z,1.63
2022-11-17T03:54:18.885Z,1.27
2022-11-17T03:58:22.531Z,1.42
2022-11-17T04:02:25.127Z,1.20
2022-11-17T04:06:26.582Z,1.10
2022-11-17T04:10:28.086Z,1.08
2022-11-17T04:14:48.170Z,0.77
2022-11-17T04:23:07.961Z,0.70
2022-11-17T04:27:28.016Z,0.90
2022-11-17T04:31:31.552Z,1.05
2022-11-17T04:35:32.982Z,0.73
2022-11-17T04:39:37.540Z,1.13
2022-11-17T04:43:39.116Z,1.08
2022-11-17T04:47:40.499Z,1.23
2022-11-17T04:51:42.409Z,1.17
2022-11-17T04:55:43.842Z,1.10
2022-11-17T04:59:45.263Z,1.42
2022-11-17T05:03:48.031Z,1.08
2022-11-17T05:07:49.444Z,1.10
2022-11-17T05:12:11.134Z,1.13
2022-11-17T05:16:31.069Z,1.33
2022-11-17T05:20:32.828Z,1.75
2022-11-17T05:24:34.266Z,1.45
2022-11-17T05:28:35.792Z,1.58
2022-11-17T05:32:37.303Z,1.10
2022-11-17T05:36:39.705Z,1.27
2022-11-17T05:40:41.115Z,1.25
2022-11-17T05:44:42.532Z,0.68
2022-11-17T05:48:44.832Z,0.75
2022-11-17T05:52:46.241Z,1.88
2022-11-17T05:56:53.610Z,1.70
2022-11-17T06:00:57.361Z,1.67
2022-11-17T06:04:58.811Z,1.75
2022-11-17T06:09:00.218Z,1.83
2022-11-17T06:13:01.649Z,2.55
2022-11-17T06:17:08.775Z,2.08
2022-11-17T06:21:13.867Z,1.65
2022-11-17T06:25:17.013Z,1.95
2022-11-17T06:29:18.920Z,1.83
2022-11-17T06:33:20.759Z,2.65
2022-11-17T06:37:22.594Z,3.78
2022-11-17T06:41:24.328Z,2.78
2022-11-17T06:45:26.383Z,3.38
2022-11-17T06:49:27.946Z,3.88
2022-11-17T06:53:29.422Z,3.92
2022-11-17T06:57:30.851Z,4.28
2022-11-17T07:01:32.264Z,3.95
2022-11-17T07:05:35.641Z,3.85
2022-11-17T07:09:37.067Z,3.90
2022-11-17T07:13:38.736Z,4.00
2022-11-17T07:17:40.158Z,3.72
2022-11-17T07:21:41.606Z,5.20
2022-11-17T07:25:43.113Z,6.18
2022-11-17T07:29:44.533Z,4.78
2022-11-17T07:33:45.983Z,7.13
2022-11-17T07:37:47.404Z,5.13
2022-11-17T07:41:48.897Z,6.55
2022-11-17T07:45:50.298Z,4.57
2022-11-17T07:49:51.768Z,5.57
2022-11-17T07:53:53.173Z,4.55
2022-11-17T07:57:57.985Z,4.15
2022-11-17T08:01:59.465Z,4.53
2022-11-17T08:06:02.771Z,4.22
2022-11-17T08:10:04.597Z,3.88
2022-11-17T08:14:06.246Z,3.35
2022-11-17T08:18:07.639Z,5.30
2022-11-17T08:22:09.075Z,3.97
2022-11-17T08:26:11.451Z,2.72
2022-11-17T08:30:13.349Z,2.67
2022-11-17T08:34:14.828Z,3.10
2022-11-17T08:38:16.384Z,2.65
2022-11-17T08:42:17.903Z,3.42
2022-11-17T08:46:19.346Z,3.22
2022-11-17T08:50:20.865Z,3.42
2022-11-17T08:54:22.286Z,2.78
2022-11-17T08:58:23.772Z,3.00
2022-11-17T09:02:26.137Z,3.05
2022-11-17T09:06:27.541Z,2.13
2022-11-17T09:10:29.053Z,2.85
2022-11-17T09:14:31.509Z,3.00
2022-11-17T09:18:34.464Z,2.65
2022-11-17T09:22:36.103Z,3.35
2022-11-17T09:26:41.071Z,2.38
2022-11-17T09:30:42.476Z,2.50
2022-11-17T09:34:44.045Z,2.90
2022-11-17T09:38:46.816Z,3.28
2022-11-17T09:42:48.380Z,3.33
2022-11-17T09:47:07.750Z,3.15
2022-11-17T09:51:15.036Z,3.93
2022-11-17T09:55:34.474Z,3.38
2022-11-17T09:59:36.861Z,3.20
2022-11-17T10:03:45.516Z,3.55
2022-11-17T10:07:50.917Z,3.95
2022-11-17T10:11:53.739Z,4.82
2022-11-17T10:16:06.436Z,3.45
2022-11-17T10:20:17.250Z,5.03
2022-11-17T10:24:40.729Z,7.05
2022-11-17T10:28:42.532Z,4.32
2022-11-17T10:32:52.493Z,5.32
2022-11-17T10:36:54.069Z,5.63
2022-11-17T10:41:00.468Z,4.13
2022-11-17T10:45:02.154Z,3.67
2022-11-17T10:49:22.361Z,3.92
2022-11-17T10:57:32.833Z,2.60
2022-11-17T11:01:37.094Z,3.92
2022-11-17T11:05:54.859Z,4.05
2022-11-17T11:09:56.247Z,3.60
2022-11-17T11:14:01.958Z,2.83
2022-11-17T11:18:17.068Z,3.25
2022-11-17T11:22:27.727Z,3.47
2022-11-17T11:26:45.539Z,4.03
2022-11-17T11:31:03.221Z,3.63
2022-11-17T11:35:32.644Z,3.05
2022-11-17T11:39:52.311Z,3.00
2022-11-17T11:44:18.263Z,2.88
2022-11-17T11:48:26.568Z,3.03
2022-11-17T11:52:35.547Z,3.15
2022-11-17T11:56:42.734Z,3.23
2022-11-17T12:00:45.806Z,2.55
2022-11-17T12:05:20.664Z,4.18
2022-11-17T12:09:43.524Z,3.00
2022-11-17T12:13:49.903Z,3.97
2022-11-17T12:17:58.970Z,3.40
2022-11-17T12:22:00.422Z,2.45
2022-11-17T12:26:02.722Z,3.63
2022-11-17T12:30:25.840Z,3.20
2022-11-17T12:34:32.642Z,3.35
2022-11-17T12:38:34.074Z,4.72
2022-11-17T12:42:36.884Z,4.43
2022-11-17T12:46:38.927Z,2.92
2022-11-17T12:50:49.109Z,3.53
2022-11-17T12:55:02.061Z,4.32
2022-11-17T12:59:24.837Z,5.13
2022-11-17T13:03:42.782Z,3.78
2022-11-17T13:07:44.524Z,1.80
2022-11-17T13:11:58.779Z,2.60
2022-11-17T13:16:01.269Z,1.85
2022-11-17T13:20:19.239Z,2.08
2022-11-17T13:24:36.073Z,2.20
2022-11-17T13:28:37.879Z,1.67
2022-11-17T13:32:43.044Z,2.30
2022-11-17T13:37:00.731Z,2.90
2022-11-17T13:41:04.046Z,2.70
2022-11-17T13:45:06.173Z,2.28
2022-11-17T13:49:32.002Z,2.15
2022-11-17T13:53:34.121Z,2.00
2022-11-17T13:57:35.602Z,2.33
2022-11-17T14:01:37.074Z,2.88
2022-11-17T14:05:54.969Z,2.45
2022-11-17T14:10:12.810Z,3.60
2022-11-17T14:14:20.054Z,2.75
2022-11-17T14:18:30.982Z,2.85
2022-11-17T14:22:32.423Z,3.25
2022-11-17T14:26:33.891Z,2.15
2022-11-17T14:30:35.298Z,2.60
2022-11-17T14:34:36.702Z,2.10
2022-11-17T14:38:38.130Z,2.88
2022-11-17T14:42:41.351Z,3.25
2022-11-17T14:46:43.367Z,2.35
2022-11-17T14:50:44.830Z,2.22
2022-11-17T14:54:46.349Z,2.55
2022-11-17T14:58:53.428Z,2.58
2022-11-17T15:02:55.074Z,2.45
2022-11-17T15:06:57.155Z,2.58
2022-11-17T15:10:58.763Z,3.03
2022-11-17T15:15:00.514Z,2.28
2022-11-17T15:19:02.555Z,2.17
2022-11-17T15:23:04.585Z,1.90
2022-11-17T15:27:06.140Z,3.05
2022-11-17T15:31:13.110Z,2.60
2022-11-17T15:35:14.738Z,2.40
2022-11-17T15:39:16.753Z,2.35
2022-11-17T15:43:18.462Z,2.45
2022-11-17T15:47:19.847Z,1.88
2022-11-17T15:51:23.808Z,2.15
2022-11-17T15:55:25.264Z,2.10
2022-11-17T15:59:26.811Z,1.70
2022-11-17T16:03:28.797Z,1.48
2022-11-17T16:07:30.384Z,1.95
2022-11-17T16:11:32.161Z,2.03
2022-11-17T16:15:33.641Z,2.17
2022-11-17T16:19:35.087Z,2.55
2022-11-17T16:24:03.346Z,1.65
2022-11-17T16:28:05.116Z,1.75
2022-11-17T16:32:06.596Z,3.17
2022-11-17T16:36:08.825Z,2.10
2022-11-17T16:40:10.806Z,1.92
2022-11-17T16:44:14.906Z,2.13
2022-11-17T16:48:16.464Z,2.13
2022-11-17T16:52:17.905Z,2.17
2022-11-17T16:56:19.410Z,2.40
2022-11-17T17:00:20.892Z,2.33
2022-11-17T17:04:22.401Z,2.08
2022-11-17T17:08:23.835Z,2.75
2022-11-17T17:12:25.353Z,2.97
2022-11-17T17:16:26.871Z,2.90
2022-11-17T17:20:28.319Z,2.63
2022-11-17T17:24:29.875Z,2.40
2022-11-17T17:28:32.967Z,2.95
2022-11-17T17:32:34.436Z,2.65
2022-11-17T17:36:38.282Z,3.72
2022-11-17T17:40:39.759Z,2.25
2022-11-17T17:44:41.742Z,3.92
2022-11-17T17:48:45.077Z,3.85
2022-11-17T17:52:46.545Z,3.55
2022-11-17T17:56:48.057Z,2.55
2022-11-17T18:00:51.061Z,3.35
2022-11-17T18:04:52.504Z,2.85
2022-11-17T18:08:54.063Z,3.45
2022-11-17T18:12:55.525Z,3.55
2022-11-17T18:16:56.989Z,3.72
2022-11-17T18:21:05.357Z,3.20
2022-11-17T18:25:07.970Z,3.60
2022-11-17T18:29:16.012Z,2.90
2022-11-17T18:33:17.845Z,3.08
2022-11-17T18:37:19.618Z,3.38
2022-11-17T18:41:21.936Z,3.85
2022-11-17T18:45:24.051Z,3.40
2022-11-17T18:49:25.582Z,3.05
2022-11-17T18:53:31.704Z,2.03
2022-11-17T18:57:33.332Z,3.80
2022-11-17T19:02:00.403Z,2.03
2022-11-17T19:06:02.376Z,3.75
2022-11-17T19:10:03.967Z,2.78
2022-11-17T19:14:05.731Z,3.50
2022-11-17T19:18:07.275Z,3.42
2022-11-17T19:22:08.856Z,3.88
2022-11-17T19:26:13.747Z,2.80
2022-11-17T19:30:15.638Z,3.38
2022-11-17T19:34:17.319Z,3.00
2022-11-17T19:38:19.187Z,4.35
2022-11-17T19:42:21.229Z,4.80
2022-11-17T19:46:24.332Z,3.90
2022-11-17T19:50:26.005Z,5.47
2022-11-17T19:54:27.553Z,4.00
2022-11-17T19:58:28.973Z,6.63
2022-11-17T20:02:30.666Z,4.70
2022-11-17T20:06:37.571Z,3.55
2022-11-17T20:10:39.125Z,3.13
2022-11-17T20:14:40.628Z,4.15
2022-11-17T20:18:43.911Z,3.60
2022-11-17T20:22:45.527Z,5.18
2022-11-17T20:26:47.229Z,5.20
2022-11-17T20:30:48.782Z,4.28
2022-11-17T20:34:50.244Z,5.38
2022-11-17T20:39:00.469Z,4.57
2022-11-17T20:43:03.915Z,5.10
2022-11-17T20:47:05.462Z,5.20
2022-11-17T20:51:10.853Z,4.85
2022-11-17T20:55:13.187Z,5.07
2022-11-17T20:59:20.065Z,3.95
2022-11-17T21:03:23.351Z,3.85
2022-11-17T21:07:24.942Z,5.03
2022-11-17T21:11:45.792Z,6.15
2022-11-17T21:15:47.337Z,5.63
2022-11-17T21:19:48.832Z,4.32
2022-11-17T21:23:54.175Z,5.40
2022-11-17T21:27:56.468Z,5.40
2022-11-17T21:31:57.914Z,3.60
2022-11-17T21:36:01.020Z,3.63
2022-11-17T21:40:02.453Z,3.90
2022-11-17T21:44:04.211Z,4.32
2022-11-17T21:48:05.893Z,4.10
2022-11-17T21:52:07.415Z,3.42
2022-11-17T21:56:08.897Z,4.55
2022-11-17T22:00:10.730Z,4.47
2022-11-17T22:04:12.940Z,3.88
2022-11-17T22:08:14.419Z,2.97
2022-11-17T22:12:15.843Z,3.88
2022-11-17T22:16:17.418Z,2.53
2022-11-17T22:20:19.024Z,3.60
2022-11-17T22:24:21.212Z,3.95
2022-11-17T22:28:23.907Z,3.25
2022-11-17T22:32:25.323Z,3.58
2022-11-17T22:36:26.774Z,3.05
2022-11-17T22:40:28.185Z,2.83
2022-11-17T22:44:29.864Z,2.58
2022-11-17T22:48:32.351Z,2.75
2022-11-17T22:52:33.783Z,3.08
2022-11-17T22:56:35.350Z,2.90
2022-11-17T23:00:37.300Z,3.13
2022-11-17T23:04:38.756Z,3.05
2022-11-17T23:08:40.283Z,3.17
2022-11-17T23:12:41.803Z,2.97
2022-11-17T23:16:43.466Z,2.83
2022-11-17T23:20:44.904Z,2.83
2022-11-17T23:24:46.342Z,3.20
2022-11-17T23:28:48.168Z,2.97
2022-11-17T23:32:53.408Z,3.67
2022-11-17T23:36:57.336Z,3.53
2022-11-17T23:41:04.251Z,4.35
2022-11-17T23:45:06.312Z,2.25
2022-11-17T23:49:07.778Z,2.83
2022-11-17T23:53:09.179Z,3.58
2022-11-17T23:57:10.583Z,3.50
